M I D A S
Marine Information and Data Acquisition System
Tripno 310 of the Zeeleeuw from 2002-08-26 06:38:59 to 2002-08-26 12:56:00
Back to CruiseResearch ActivitiesStationsMapUnderway DataData graphs

EquipmentUnitsComments
TimeDGPSUTC
LatitudeDGPSDM.mWGS84
LongitudeDGPSDM.mWGS84
SpeedMeteo Stationm/sRelative wind speed
DirectionMeteo StationdegRelative wind direction
TemperatureMeteo Stationdeg CelciusAir temperature
PressureMeteo StationPaAtmospheric pressure
HumidityMeteo Station%Relative humidity
Missing or incorrect values are displayed as -999
Metereological data collected by the RV Zeeleeuw from 2002-08-26 06:38:59 to 2002-08-26 12:56:00
Time Latitude Longitude Speed Direction Temperature Pressure Humidity
2002-08-26 06:40 51°13.668 2°55.932 4.5 328 18.1 102130 77
2002-08-26 06:41 51°13.682 2°55.854 2.2 300 18.1 102130 77
2002-08-26 06:42 51°13.687 2°55.781 2.4 342 18.1 102110 76
2002-08-26 06:43 51°13.686 2°55.744 8.1 284 18.1 102120 76
2002-08-26 06:44 51°13.71 2°55.753 5 231 18.2 102110 77
2002-08-26 06:45 51°13.786 2°55.677 12.2 198 18.1 102110 77
2002-08-26 06:46 51°13.902 2°55.58 9.3 205 18.2 102110 77
2002-08-26 06:47 51°14.035 2°55.48 12.4 201 18.2 102100 77
2002-08-26 06:48 51°14.166 2°55.375 12 196 18.2 102090 78
2002-08-26 06:49 51°14.279 2°55.225 9.5 183 18.2 102100 79
2002-08-26 06:50 51°14.358 2°55.023 13.7 164 18.3 102100 79
2002-08-26 06:51 51°14.373 2°54.783 7.5 138 18.2 102080 78
2002-08-26 06:52 51°14.329 2°54.478 7.7 122 18.2 102100 78
2002-08-26 06:53 51°14.244 2°54.174 8.3 133 18.2 102110 79
2002-08-26 06:54 51°14.153 2°53.851 6.4 120 18.2 102100 78
2002-08-26 06:55 51°14.052 2°53.485 5.6 140 18.3 102110 79
2002-08-26 06:56 51°13.949 2°53.115 6.7 129 18.3 102100 79
2002-08-26 06:57 51°13.852 2°52.753 5.3 128 18.2 102110 78
2002-08-26 06:58 51°13.739 2°52.385 6.2 144 18.2 102120 78
2002-08-26 06:59 51°13.621 2°52.018 5.4 126 18.2 102110 79
2002-08-26 07:00 51°13.508 2°51.64 5.7 136 18.1 102110 78
2002-08-26 07:01 51°13.397 2°51.273 6.3 124 18.1 102100 78
2002-08-26 07:02 51°13.272 2°50.909 6.4 119 18.2 102110 78
2002-08-26 07:03 51°13.142 2°50.552 6.2 128 18.1 102110 77
2002-08-26 07:04 51°13.008 2°50.196 6.9 136 18.2 102110 78
2002-08-26 07:05 51°12.878 2°49.833 5 129 18.3 102110 78
2002-08-26 07:05 51°12.746 2°49.474 6.3 128 18.2 102110 78
2002-08-26 07:07 51°12.615 2°49.102 3.8 130 18.2 102110 77
2002-08-26 07:08 51°12.483 2°48.742 7.1 134 18.2 102110 78
2002-08-26 07:09 51°12.354 2°48.379 4.7 123 18.2 102120 77
2002-08-26 07:10 51°12.227 2°48.031 5.5 145 18.2 102120 77
2002-08-26 07:11 51°12.103 2°47.679 4.9 133 18.2 102110 77
2002-08-26 07:12 51°11.981 2°47.348 4.5 140 18.2 102110 77
2002-08-26 07:13 51°11.861 2°47.002 5.3 116 18.2 102110 76
2002-08-26 07:14 51°11.738 2°46.664 3.7 125 18.2 102120 76
2002-08-26 07:15 51°11.611 2°46.317 7 125 18.4 102120 77
2002-08-26 07:16 51°11.482 2°45.991 8.2 138 18.4 102120 77
2002-08-26 07:17 51°11.348 2°45.66 4.7 123 18.2 102120 75
2002-08-26 07:18 51°11.208 2°45.333 5.2 118 18.2 102120 76
2002-08-26 07:19 51°11.076 2°45.012 4.7 105 18.3 102120 76
2002-08-26 07:20 51°10.944 2°44.697 5.3 104 18.2 102120 76
2002-08-26 07:21 51°10.812 2°44.392 5.6 102 18.2 102130 74
2002-08-26 07:22 51°10.678 2°44.081 4.3 115 18.2 102130 75
2002-08-26 07:23 51°10.554 2°43.766 6.7 120 18.3 102130 75
2002-08-26 07:24 51°10.436 2°43.454 6.3 119 18.3 102120 76
2002-08-26 07:25 51°10.332 2°43.123 8.8 125 18.3 102120 75
2002-08-26 07:26 51°10.241 2°42.782 7.7 136 18.3 102120 75
2002-08-26 07:27 51°10.157 2°42.436 6 133 18.3 102110 75
2002-08-26 07:28 51°10.078 2°42.083 6.6 132 18.4 102120 76
2002-08-26 07:28 51°10.008 2°41.747 6.7 131 18.3 102130 75
2002-08-26 07:30 51°9.961 2°41.382 7.7 139 18.4 102120 76
2002-08-26 07:31 51°9.917 2°41.018 8.9 143 18.4 102110 77
2002-08-26 07:32 51°9.871 2°40.641 7.5 140 18.3 102120 76
2002-08-26 07:33 51°9.828 2°40.269 7.6 152 18.3 102120 76
2002-08-26 07:34 51°9.783 2°39.888 8.4 142 18.4 102120 77
2002-08-26 07:35 51°9.743 2°39.494 8.6 152 18.3 102120 77
2002-08-26 07:36 51°9.699 2°39.099 8 150 18.3 102120 76
2002-08-26 07:37 51°9.657 2°38.721 8.5 134 18.3 102130 77
2002-08-26 07:37 51°9.616 2°38.34 5.1 153 18.2 102130 76
2002-08-26 07:39 51°9.581 2°37.945 8.6 144 18.2 102120 77
2002-08-26 07:39 51°9.552 2°37.561 8.6 158 18.3 102120 77
2002-08-26 07:41 51°9.516 2°37.162 8.6 144 18.3 102120 77
2002-08-26 07:42 51°9.489 2°36.766 10.4 152 18.3 102120 77
2002-08-26 07:43 51°9.502 2°36.372 12.7 175 18.4 102120 79
2002-08-26 07:44 51°9.625 2°36.061 14.9 195 18.3 102080 78
2002-08-26 07:45 51°9.822 2°35.881 16 210 18.3 102080 79
2002-08-26 07:46 51°10.026 2°35.781 17.1 316 18.2 102080 79
2002-08-26 07:47 51°10.217 2°35.874 18.4 238 18.2 102100 79
2002-08-26 07:48 51°10.405 2°36.03 17.1 224 18.2 102110 79
2002-08-26 07:49 51°10.587 2°36.167 18.9 238 18.3 102110 80
2002-08-26 07:50 51°10.778 2°36.302 18.2 232 18.3 102100 79
2002-08-26 07:51 51°10.965 2°36.453 15.9 235 18.3 102110 79
2002-08-26 07:52 51°11.157 2°36.618 18.5 232 18.1 102100 78
2002-08-26 07:53 51°11.337 2°36.771 18.1 232 18.2 102090 79
2002-08-26 07:54 51°11.516 2°36.926 18 238 18.1 102070 78
2002-08-26 07:55 51°11.692 2°37.075 18.6 236 18.2 102110 79
2002-08-26 07:56 51°11.874 2°37.228 17.4 233 18.2 102100 80
2002-08-26 07:57 51°12.053 2°37.379 18.3 236 18.3 102100 80
2002-08-26 07:58 51°12.235 2°37.523 18.3 233 18.3 102090 80
2002-08-26 07:59 51°12.417 2°37.656 18.4 231 18.2 102090 78
2002-08-26 08:00 51°12.604 2°37.796 16.5 233 18.1 102110 78
2002-08-26 08:01 51°12.783 2°37.939 19.3 237 18.2 102090 79
2002-08-26 08:02 51°12.966 2°38.084 18.8 240 18.1 102100 77
2002-08-26 08:03 51°13.148 2°38.228 16.2 241 18.2 102090 78
2002-08-26 08:04 51°13.332 2°38.373 16.8 239 18.2 102090 79
2002-08-26 08:05 51°13.514 2°38.517 18 235 18.1 102090 78
2002-08-26 08:06 51°13.697 2°38.658 18.3 236 18.1 102110 77
2002-08-26 08:07 51°13.882 2°38.752 17.6 223 18.2 102080 78
2002-08-26 08:08 51°14.08 2°38.626 13.1 197 18.1 102080 77
2002-08-26 08:09 51°14.15 2°38.293 7.6 142 18.2 102080 78
2002-08-26 08:10 51°14.049 2°37.925 7 144 18.1 102130 78
2002-08-26 08:11 51°13.938 2°37.565 6 130 18.1 102140 78
2002-08-26 08:12 51°13.826 2°37.191 7.8 133 18.2 102140 80
2002-08-26 08:13 51°13.72 2°36.824 6.4 141 18.2 102130 80
2002-08-26 08:14 51°13.611 2°36.455 7.7 132 18.2 102120 79
2002-08-26 08:15 51°13.501 2°36.081 6.3 138 18.1 102130 79
2002-08-26 08:16 51°13.393 2°35.714 5.6 131 18.1 102140 79
2002-08-26 08:17 51°13.281 2°35.346 7.6 134 18.1 102140 80
2002-08-26 08:18 51°13.166 2°34.98 6.5 128 18 102130 79
2002-08-26 08:19 51°13.056 2°34.618 8.3 134 18 102130 79
2002-08-26 08:20 51°12.945 2°34.26 8.2 143 18.1 102130 80
2002-08-26 08:21 51°12.828 2°33.89 6.4 140 18.1 102130 79
2002-08-26 08:22 51°12.722 2°33.549 7.4 142 18 102130 79
2002-08-26 08:23 51°12.62 2°33.196 7.1 135 18 102130 79
2002-08-26 08:24 51°12.519 2°32.833 7.2 129 18 102130 79
2002-08-26 08:25 51°12.415 2°32.479 6 138 18.1 102130 80
2002-08-26 08:26 51°12.315 2°32.108 8.3 143 18.1 102120 79
2002-08-26 08:27 51°12.222 2°31.738 7.6 129 18 102120 78
2002-08-26 08:28 51°12.131 2°31.373 5.9 147 18.1 102120 79
2002-08-26 08:29 51°12.036 2°31.004 7.8 140 18.1 102120 79
2002-08-26 08:30 51°11.945 2°30.626 5.6 144 18.1 102130 79
2002-08-26 08:31 51°11.852 2°30.239 7.9 144 18.1 102130 79
2002-08-26 08:32 51°11.758 2°29.856 6.3 147 18.1 102120 79
2002-08-26 08:33 51°11.668 2°29.485 5.9 146 18 102120 79
2002-08-26 08:34 51°11.581 2°29.097 8.6 145 18 102130 79
2002-08-26 08:35 51°11.509 2°28.719 7.3 135 18 102130 79
2002-08-26 08:36 51°11.435 2°28.329 8 148 17.9 102120 78
2002-08-26 08:37 51°11.365 2°27.932 7.2 136 17.9 102130 78
2002-08-26 08:38 51°11.298 2°27.538 7.3 139 18 102140 78
2002-08-26 08:39 51°11.227 2°27.143 7.5 146 18.1 102140 79
2002-08-26 08:40 51°11.163 2°26.75 9.5 142 18 102130 78
2002-08-26 08:41 51°11.106 2°26.357 7.4 146 18.1 102140 79
2002-08-26 08:42 51°11.054 2°25.962 8.6 159 18 102130 78
2002-08-26 08:43 51°11.058 2°25.565 10.1 162 18 102130 78
2002-08-26 08:44 51°11.175 2°25.248 13.5 196 18 102100 78
2002-08-26 08:45 51°11.368 2°25.207 17.3 230 18.1 102110 79
2002-08-26 08:46 51°11.551 2°25.333 16.4 230 18.1 102100 78
2002-08-26 08:47 51°11.735 2°25.453 18 228 18.1 102120 79
2002-08-26 08:48 51°11.915 2°25.576 17.9 233 18.1 102120 78
2002-08-26 08:49 51°12.094 2°25.701 16.9 233 18 102110 77
2002-08-26 08:50 51°12.266 2°25.834 17.4 232 18 102110 77
2002-08-26 08:51 51°12.421 2°26.007 17.2 243 18 102110 77
2002-08-26 08:52 51°12.578 2°26.19 16.4 236 18.1 102110 78
2002-08-26 08:53 51°12.731 2°26.371 16.3 236 18.1 102100 78
2002-08-26 08:54 51°12.888 2°26.552 17.2 240 18 102100 78
2002-08-26 08:55 51°13.049 2°26.739 16.3 238 18 102090 78
2002-08-26 08:56 51°13.212 2°26.926 17.4 236 18.1 102080 78
2002-08-26 08:57 51°13.364 2°27.145 17.6 246 18.1 102100 79
2002-08-26 08:58 51°13.506 2°27.359 16.7 246 18.1 102090 79
2002-08-26 08:59 51°13.648 2°27.573 16.4 242 18 102070 78
2002-08-26 09:00 51°13.795 2°27.793 17.1 237 18 102100 79
2002-08-26 09:01 51°13.941 2°28.012 17.8 243 18 102100 79
2002-08-26 09:02 51°14.086 2°28.23 17.7 244 18 102080 79
2002-08-26 09:03 51°14.23 2°28.447 17.6 242 18.1 102080 79
2002-08-26 09:04 51°14.38 2°28.67 16.8 239 18 102100 79
2002-08-26 09:05 51°14.521 2°28.893 17.5 243 18 102090 78
2002-08-26 09:06 51°14.663 2°29.122 17.5 247 18 102110 79
2002-08-26 09:07 51°14.801 2°29.347 17 240 18 102090 78
2002-08-26 09:08 51°14.951 2°29.581 16.3 245 18 102090 79
2002-08-26 09:09 51°15.094 2°29.806 18.3 248 18 102090 78
2002-08-26 09:10 51°15.24 2°30.031 16.5 251 18 102090 78
2002-08-26 09:11 51°15.382 2°30.254 17.6 243 18.1 102110 79
2002-08-26 09:12 51°15.528 2°30.483 17.8 240 17.9 102090 77
2002-08-26 09:13 51°15.668 2°30.701 14.7 249 17.9 102100 78
2002-08-26 09:14 51°15.815 2°30.925 16.7 246 18 102090 78
2002-08-26 09:15 51°15.959 2°31.145 17.5 243 18 102100 78
2002-08-26 09:16 51°16.105 2°31.365 16.2 245 18 102100 78
2002-08-26 09:17 51°16.245 2°31.58 16.7 244 18.1 102090 79
2002-08-26 09:18 51°16.392 2°31.803 17.1 242 18.1 102070 79
2002-08-26 09:19 51°16.541 2°32.027 15.2 244 18 102090 79
2002-08-26 09:20 51°16.691 2°32.248 15.7 242 18 102120 79
2002-08-26 09:21 51°16.849 2°32.472 17.4 241 18 102090 79
2002-08-26 09:22 51°17.001 2°32.685 17.9 239 18 102110 79
2002-08-26 09:23 51°17.148 2°32.895 15.3 240 18 102090 78
2002-08-26 09:24 51°17.299 2°33.107 15.8 243 18 102090 79
2002-08-26 09:25 51°17.451 2°33.319 14.5 243 18 102100 79
2002-08-26 09:26 51°17.597 2°33.535 17 249 18 102090 79
2002-08-26 09:27 51°17.733 2°33.769 16.4 243 18 102090 79
2002-08-26 09:28 51°17.864 2°33.99 15.3 247 17.8 102080 78
2002-08-26 09:29 51°18 2°34.22 17.6 248 17.9 102090 79
2002-08-26 09:30 51°18.131 2°34.442 17.4 245 17.9 102090 78
2002-08-26 09:31 51°18.268 2°34.673 15.9 251 17.9 102080 79
2002-08-26 09:32 51°18.404 2°34.906 15.9 254 18 102090 80
2002-08-26 09:33 51°18.539 2°35.139 16.7 252 18 102080 80
2002-08-26 09:34 51°18.674 2°35.375 15.1 250 18 102080 79
2002-08-26 09:35 51°18.806 2°35.602 16.9 242 18 102070 79
2002-08-26 09:36 51°18.943 2°35.844 18 250 17.9 102080 78
2002-08-26 09:37 51°19.077 2°36.08 16.1 247 18 102070 79
2002-08-26 09:38 51°19.212 2°36.316 14.5 246 17.9 102060 78
2002-08-26 09:39 51°19.346 2°36.551 17.7 247 17.9 102060 78
2002-08-26 09:40 51°19.475 2°36.778 16.8 253 18 102090 79
2002-08-26 09:41 51°19.609 2°37.016 15.5 252 18 102080 79
2002-08-26 09:42 51°19.744 2°37.255 17 247 18 102060 79
2002-08-26 09:43 51°19.874 2°37.482 15.3 254 18 102060 79
2002-08-26 09:44 51°20.007 2°37.719 18.7 254 18 102050 79
2002-08-26 09:45 51°20.127 2°37.951 16.2 253 18 102050 80
2002-08-26 09:46 51°20.239 2°38.212 17.9 253 17.9 102060 79
2002-08-26 09:47 51°20.35 2°38.465 15.7 252 17.9 102060 79
2002-08-26 09:48 51°20.459 2°38.729 15.9 253 18 102060 79
2002-08-26 09:49 51°20.564 2°38.99 16 254 17.9 102030 78
2002-08-26 09:50 51°20.67 2°39.252 16.5 258 18 102050 79
2002-08-26 09:51 51°20.772 2°39.518 17.2 246 18 102060 79
2002-08-26 09:52 51°20.871 2°39.786 16.2 259 18 102040 79
2002-08-26 09:53 51°20.968 2°40.053 16 251 18 102060 79
2002-08-26 09:54 51°21.066 2°40.321 16.6 257 18 102060 79
2002-08-26 09:55 51°21.17 2°40.607 17.3 256 18.1 102060 79
2002-08-26 09:56 51°21.286 2°40.872 17.1 257 18 102060 79
2002-08-26 09:57 51°21.401 2°41.13 16.3 256 18 102040 78
2002-08-26 09:58 51°21.504 2°41.402 16.4 258 18 102060 77
2002-08-26 09:59 51°21.594 2°41.709 14.8 255 18 102060 77
2002-08-26 10:00 51°21.678 2°42.006 16.8 262 18 102050 77
2002-08-26 10:01 51°21.76 2°42.303 15.6 262 18.1 102070 78
2002-08-26 10:02 51°21.828 2°42.609 16.7 256 18.2 102050 77
2002-08-26 10:03 51°21.878 2°42.919 15.5 273 18.1 102060 77
2002-08-26 10:04 51°21.91 2°43.238 16.1 270 18.1 102050 77
2002-08-26 10:05 51°21.899 2°43.482 9.9 298 18.1 102070 78
2002-08-26 10:06 51°21.855 2°43.588 11.2 300 18.2 102080 79
2002-08-26 10:07 51°21.771 2°43.628 5.5 32 18.1 102090 78
2002-08-26 10:08 51°21.697 2°43.436 9.2 166 18.1 102080 78
2002-08-26 10:09 51°21.817 2°43.287 14.3 216 18.1 102060 78
2002-08-26 10:10 51°22.005 2°43.16 16.6 211 18 102060 78
2002-08-26 10:11 51°22.195 2°43.029 17.2 218 18 102040 78
2002-08-26 10:12 51°22.396 2°42.892 15.8 217 17.9 102040 78
2002-08-26 10:13 51°22.593 2°42.728 15.4 214 17.9 102050 78
2002-08-26 10:14 51°22.779 2°42.53 13.9 211 18 102050 78
2002-08-26 10:15 51°22.958 2°42.338 16 218 17.9 102050 78
2002-08-26 10:16 51°23.15 2°42.138 15 211 17.9 102050 78
2002-08-26 10:17 51°23.343 2°41.94 15.6 211 17.9 102050 77
2002-08-26 10:18 51°23.535 2°41.751 16.2 212 17.9 102030 77
2002-08-26 10:19 51°23.725 2°41.573 15.2 215 18 102060 78
2002-08-26 10:20 51°23.92 2°41.39 17 216 18 102020 77
2002-08-26 10:21 51°24.113 2°41.225 16.2 221 18 102030 78
2002-08-26 10:22 51°24.308 2°41.071 17 216 18.1 102040 79
2002-08-26 10:23 51°24.497 2°40.925 16.6 224 18.1 102040 79
2002-08-26 10:24 51°24.698 2°40.771 17.6 217 17.9 102030 79
2002-08-26 10:25 51°24.893 2°40.625 17.5 221 17.9 102030 79
2002-08-26 10:26 51°25.092 2°40.502 15.1 223 17.8 102030 79
2002-08-26 10:27 51°25.299 2°40.444 17.1 225 17.9 102040 79
2002-08-26 10:28 51°25.508 2°40.423 16.2 229 17.8 102050 79
2002-08-26 10:29 51°25.711 2°40.393 17.3 228 17.8 102040 79
2002-08-26 10:30 51°25.914 2°40.362 16.6 228 17.9 102050 80
2002-08-26 10:31 51°26.128 2°40.351 16.6 242 17.9 102050 80
2002-08-26 10:32 51°26.264 2°40.543 16.1 259 17.9 102030 80
2002-08-26 10:33 51°26.359 2°40.799 16.4 258 17.9 102020 80
2002-08-26 10:34 51°26.446 2°41.075 15.1 260 17.9 102030 80
2002-08-26 10:35 51°26.529 2°41.35 14.3 261 17.9 102020 80
2002-08-26 10:36 51°26.613 2°41.628 15.1 264 17.9 102040 79
2002-08-26 10:37 51°26.697 2°41.901 14.8 254 18 102030 80
2002-08-26 10:38 51°26.784 2°42.181 15.2 261 17.9 102020 79
2002-08-26 10:39 51°26.871 2°42.459 15.6 263 17.9 102030 78
2002-08-26 10:40 51°26.955 2°42.738 14.3 261 18 102040 78
2002-08-26 10:41 51°27.042 2°43.016 15.5 254 17.9 102040 78
2002-08-26 10:42 51°27.125 2°43.299 14.2 266 17.9 102020 78
2002-08-26 10:43 51°27.196 2°43.589 13.5 264 18 102020 77
2002-08-26 10:44 51°27.267 2°43.877 15.4 265 18 102040 78
2002-08-26 10:45 51°27.34 2°44.171 15.2 268 18 102020 77
2002-08-26 10:46 51°27.279 2°44.457 7.8 317 18.1 102060 77
2002-08-26 10:47 51°27.081 2°44.641 6.3 293 18.1 102070 78
2002-08-26 10:48 51°26.863 2°44.791 4.5 308 18.1 102070 77
2002-08-26 10:49 51°26.641 2°44.937 4.9 318 18.1 102070 77
2002-08-26 10:50 51°26.418 2°45.093 6 306 18.1 102070 77
2002-08-26 10:51 51°26.2 2°45.253 6.2 300 18.2 102070 78
2002-08-26 10:52 51°25.985 2°45.418 4.2 316 18.2 102060 77
2002-08-26 10:53 51°25.772 2°45.585 4.3 299 18.2 102060 78
2002-08-26 10:54 51°25.552 2°45.761 6.1 295 18.3 102050 78
2002-08-26 10:55 51°25.336 2°45.93 5.7 294 18.3 102050 78
2002-08-26 10:56 51°25.115 2°46.11 6.3 303 18.4 102050 77
2002-08-26 10:57 51°24.898 2°46.286 5.6 302 18.4 102050 77
2002-08-26 10:58 51°24.688 2°46.46 9.1 297 18.5 102050 78
2002-08-26 10:59 51°24.667 2°46.742 15.1 256 18.6 102020 78
2002-08-26 11:00 51°24.771 2°47.009 15.6 257 18.6 102010 78
2002-08-26 11:01 51°24.869 2°47.282 15.8 256 18.4 101980 78
2002-08-26 11:02 51°24.963 2°47.552 15.6 262 18.3 102000 77
2002-08-26 11:03 51°25.066 2°47.844 16.1 261 18.2 102020 77
2002-08-26 11:04 51°25.161 2°48.134 15.1 260 18.2 102000 77
2002-08-26 11:05 51°25.257 2°48.413 14.3 256 18.2 102000 77
2002-08-26 11:06 51°25.356 2°48.7 15.7 257 18.2 101990 77
2002-08-26 11:07 51°25.454 2°49 16.1 259 18.3 102000 78
2002-08-26 11:08 51°25.548 2°49.291 15.4 258 18.3 102010 78
2002-08-26 11:09 51°25.639 2°49.572 14.9 258 18.3 101990 78
2002-08-26 11:10 51°25.737 2°49.869 14.5 257 18.4 102010 79
2002-08-26 11:11 51°25.833 2°50.159 13.8 256 18.3 102000 78
2002-08-26 11:12 51°25.955 2°50.405 16 239 18.3 102010 78
2002-08-26 11:13 51°26.142 2°50.334 13.4 209 18.2 102020 78
2002-08-26 11:14 51°26.331 2°50.126 15 210 18.2 102010 78
2002-08-26 11:15 51°26.51 2°49.936 13.4 210 18.1 102020 78
2002-08-26 11:16 51°26.701 2°49.731 13.9 214 18.1 102020 79
2002-08-26 11:17 51°26.883 2°49.53 14.4 212 18.1 102010 78
2002-08-26 11:18 51°27.056 2°49.33 13.9 215 18.1 102010 79
2002-08-26 11:19 51°27.241 2°49.137 16.1 223 18.1 102010 79
2002-08-26 11:20 51°27.426 2°48.955 15.5 223 18.1 102020 79
2002-08-26 11:21 51°27.626 2°48.765 14.4 220 18.1 102020 78
2002-08-26 11:22 51°27.818 2°48.585 13.7 220 18.1 102010 78
2002-08-26 11:23 51°28.016 2°48.42 15.9 216 18.1 102020 79
2002-08-26 11:24 51°28.208 2°48.263 13.9 218 18 102010 78
2002-08-26 11:25 51°28.407 2°48.113 14.8 223 18 102020 78
2002-08-26 11:26 51°28.605 2°48.154 14.9 247 18.1 102050 78
2002-08-26 11:27 51°28.688 2°48.448 14.4 260 18.1 102000 78
2002-08-26 11:28 51°28.753 2°48.772 14.7 264 18.1 102000 77
2002-08-26 11:29 51°28.816 2°49.094 13.7 261 18.2 102000 78
2002-08-26 11:30 51°28.881 2°49.418 13.6 265 18.2 102000 79
2002-08-26 11:31 51°28.951 2°49.735 15.5 257 18.2 102000 78
2002-08-26 11:32 51°29.027 2°50.048 12.8 259 18.2 101990 78
2002-08-26 11:33 51°29.106 2°50.372 13.6 256 18.2 101990 78
2002-08-26 11:34 51°29.181 2°50.69 14.1 261 18.2 102010 78
2002-08-26 11:35 51°29.26 2°51.005 13.7 253 18.2 102000 77
2002-08-26 11:36 51°29.338 2°51.32 13.3 254 18.2 101980 77
2002-08-26 11:37 51°29.416 2°51.637 13.4 255 18.2 101990 78
2002-08-26 11:38 51°29.493 2°51.945 16.3 259 18.2 101980 78
2002-08-26 11:39 51°29.519 2°52.297 11.7 284 18.2 102010 77
2002-08-26 11:40 51°29.362 2°52.554 5.2 310 18.2 102040 78
2002-08-26 11:41 51°29.149 2°52.701 5.6 295 18.1 102040 77
2002-08-26 11:42 51°28.925 2°52.853 7.3 304 18.2 102040 78
2002-08-26 11:43 51°28.697 2°52.99 6.2 299 18.3 102030 77
2002-08-26 11:44 51°28.461 2°53.135 6.9 297 18.3 102040 77
2002-08-26 11:45 51°28.236 2°53.283 5.9 292 18.4 102040 76
2002-08-26 11:46 51°28.01 2°53.43 5.4 294 18.4 102030 76
2002-08-26 11:47 51°27.787 2°53.589 5.2 309 18.5 102030 76
2002-08-26 11:48 51°27.564 2°53.757 7.1 298 18.5 102030 76
2002-08-26 11:49 51°27.342 2°53.922 5.2 303 18.6 102030 76
2002-08-26 11:50 51°27.119 2°54.066 6.1 296 18.6 102030 76
2002-08-26 11:51 51°26.886 2°54.208 5.5 293 18.6 102030 76
2002-08-26 11:52 51°26.657 2°54.357 4.8 308 18.6 102030 76
2002-08-26 11:53 51°26.43 2°54.5 7 298 18.6 102020 76
2002-08-26 11:54 51°26.216 2°54.639 7.4 298 18.6 102020 75
2002-08-26 11:55 51°25.98 2°54.797 6.7 302 18.6 102020 75
2002-08-26 11:56 51°25.763 2°54.942 6.5 296 18.6 102030 76
2002-08-26 11:57 51°25.526 2°55.109 7.5 298 18.6 102020 76
2002-08-26 11:58 51°25.308 2°55.278 7.4 300 18.6 102020 76
2002-08-26 11:59 51°25.087 2°55.436 5.4 306 18.6 102020 76
2002-08-26 12:00 51°24.869 2°55.601 5 295 18.6 102020 76
2002-08-26 12:01 51°24.646 2°55.767 7 289 18.7 102020 76
2002-08-26 12:02 51°24.419 2°55.925 5.7 295 18.8 102010 75
2002-08-26 12:03 51°24.197 2°56.076 6 296 18.8 102010 75
2002-08-26 12:04 51°23.973 2°56.223 5.6 293 18.8 102010 75
2002-08-26 12:05 51°23.747 2°56.384 4.3 302 18.9 102000 75
2002-08-26 12:06 51°23.522 2°56.543 6.9 292 18.9 102000 75
2002-08-26 12:07 51°23.297 2°56.701 5.5 313 18.9 102000 75
2002-08-26 12:08 51°23.072 2°56.853 5.1 293 18.8 101990 75
2002-08-26 12:09 51°22.847 2°57.008 6.4 294 18.8 102000 76
2002-08-26 12:10 51°22.618 2°57.147 4.5 306 18.8 102000 76
2002-08-26 12:11 51°22.376 2°57.227 3.8 307 18.7 102000 75
2002-08-26 12:12 51°22.132 2°57.279 2.9 310 18.8 102000 76
2002-08-26 12:13 51°21.882 2°57.309 1.2 328 18.8 102000 76
2002-08-26 12:14 51°21.638 2°57.345 2.6 347 18.7 102000 74
2002-08-26 12:15 51°21.389 2°57.376 1.7 320 18.8 101990 76
2002-08-26 12:16 51°21.143 2°57.421 0.7 352 18.7 101990 75
2002-08-26 12:17 51°20.898 2°57.457 1.8 319 18.7 101990 76
2002-08-26 12:18 51°20.655 2°57.499 0.9 257 18.6 102000 74
2002-08-26 12:19 51°20.409 2°57.544 2.1 336 18.7 101990 75
2002-08-26 12:20 51°20.164 2°57.581 1.6 332 18.6 101990 75
2002-08-26 12:21 51°19.918 2°57.594 1.7 348 18.6 101990 75
2002-08-26 12:22 51°19.678 2°57.518 1.6 133 18.6 101990 75
2002-08-26 12:23 51°19.503 2°57.28 6 149 18.7 101990 74
2002-08-26 12:24 51°19.377 2°56.943 6.5 146 18.7 101980 75
2002-08-26 12:25 51°19.281 2°56.59 7.8 153 18.5 101970 75
2002-08-26 12:26 51°19.194 2°56.254 6.8 152 18.5 101970 75
2002-08-26 12:27 51°19.1 2°55.882 5.3 145 18.4 101970 76
2002-08-26 12:28 51°19.008 2°55.527 9.1 146 18.5 101960 76
2002-08-26 12:29 51°18.918 2°55.167 7 143 18.5 101970 76
2002-08-26 12:30 51°18.828 2°54.809 6.1 142 18.5 101970 76
2002-08-26 12:31 51°18.735 2°54.451 8.7 157 18.4 101970 77
2002-08-26 12:32 51°18.644 2°54.099 7.5 146 18.4 101960 77
2002-08-26 12:33 51°18.557 2°53.744 6.5 156 18.4 101980 78
2002-08-26 12:34 51°18.468 2°53.391 5.7 151 18.4 101970 78
2002-08-26 12:35 51°18.374 2°53.043 7.7 155 18.4 101970 78
2002-08-26 12:36 51°18.271 2°52.699 6.1 145 18.4 101980 78
2002-08-26 12:37 51°18.116 2°52.41 3.1 139 18.3 101980 78
2002-08-26 12:38 51°17.908 2°52.232 1.8 23 18.4 101980 78
2002-08-26 12:39 51°17.671 2°52.209 1.3 303 18.6 101980 79
2002-08-26 12:40 51°17.43 2°52.227 1.5 338 18.6 101980 78
2002-08-26 12:41 51°17.197 2°52.313 5.6 291 18.6 101980 78
2002-08-26 12:42 51°16.965 2°52.441 4.2 300 18.7 101970 77
2002-08-26 12:43 51°16.741 2°52.592 8.5 298 18.7 101980 76
2002-08-26 12:44 51°16.524 2°52.763 3.9 320 18.8 101970 77
2002-08-26 12:45 51°16.311 2°52.938 6.5 300 18.8 101970 76
2002-08-26 12:46 51°16.098 2°53.119 8.3 301 19 101970 76
2002-08-26 12:47 51°15.888 2°53.307 5.2 296 19 101970 75
2002-08-26 12:48 51°15.686 2°53.486 6.9 302 19.1 101960 76
2002-08-26 12:49 51°15.477 2°53.675 6.4 300 19.1 101960 76
2002-08-26 12:50 51°15.255 2°53.868 5.6 298 19.1 101970 76
2002-08-26 12:51 51°15.05 2°54.057 7.2 300 19.1 101960 75
2002-08-26 12:52 51°14.855 2°54.275 7.2 298 19.1 101960 75
2002-08-26 12:53 51°14.664 2°54.484 7.3 303 19.1 101960 75
2002-08-26 12:54 51°14.509 2°54.703 9.7 294 19.2 101950 76
2002-08-26 12:55 51°14.387 2°54.975 9.9 302 19.2 101930 75